Time;durP1;ratioP1;P1;durP2;ratioP2;P2;SDS_P1;SDS_P2;PMS_P1;PMS_P2;Temp;Humidity;BMP_temperature;BMP_pressure;BME280_temperature;BME280_humidity;BME280_pressure;Samples;Min_cycle;Max_cycle;Signal;HPM_P1;HPM_P2
2022/09/27 00:00:08;;;;;;;19.00;15.80;;;;;;;8.06;79.75;98557.39;213251;1276;139813;-66
2022/09/27 00:05:27;;;;;;;16.90;14.70;;;;;;;8.04;79.86;98558.59;214484;1276;140451;-67
2022/09/27 00:10:47;;;;;;;16.50;14.80;;;;;;;7.97;79.36;98551.91;213100;1276;140488;-66
2022/09/27 00:16:04;;;;;;;15.60;13.90;;;;;;;7.92;79.81;98548.36;214428;1276;140386;-67
2022/09/27 00:21:10;;;;;;;17.70;14.80;;;;;;;7.87;80.42;98548.40;214038;1276;142324;-66
2022/09/27 00:26:13;;;;;;;19.10;16.90;;;;;;;7.89;80.41;98539.94;215260;1276;140711;-67
2022/09/27 00:31:23;;;;;;;18.70;16.30;;;;;;;7.91;80.51;98540.77;215472;1276;141221;-67
2022/09/27 00:36:28;;;;;;;19.40;17.40;;;;;;;7.98;81.00;98544.23;215978;1276;140420;-68
2022/09/27 00:41:33;;;;;;;14.70;13.10;;;;;;;8.06;81.61;98543.53;215649;1276;140980;-67
2022/09/27 00:46:43;;;;;;;18.70;15.70;;;;;;;8.13;81.58;98537.79;215256;1276;141626;-67
2022/09/27 00:51:52;;;;;;;20.90;16.20;;;;;;;8.19;81.58;98532.87;214697;1276;140991;-67
2022/09/27 00:56:56;;;;;;;20.30;17.50;;;;;;;8.23;81.41;98530.36;214602;1276;141638;-67
2022/09/27 01:02:00;;;;;;;16.40;14.30;;;;;;;8.27;81.54;98528.27;215114;1276;141430;-67
2022/09/27 01:07:04;;;;;;;13.20;12.00;;;;;;;8.23;81.63;98525.16;213356;1276;143138;-66
2022/09/27 01:12:40;;;;;;;19.30;16.70;;;;;;;8.15;81.50;98514.98;214215;1276;141061;-66
2022/09/27 01:17:51;;;;;;;15.70;14.00;;;;;;;8.10;81.85;98502.61;213106;1276;141524;-66
2022/09/27 01:23:27;;;;;;;19.80;16.70;;;;;;;8.11;81.65;98490.63;213878;1276;141255;-67
2022/09/27 01:28:37;;;;;;;20.00;15.90;;;;;;;8.18;81.80;98481.16;213292;1275;141464;-66
2022/09/27 01:33:56;;;;;;;20.20;17.30;;;;;;;8.25;82.21;98471.08;213298;1276;140535;-67
2022/09/27 01:39:21;;;;;;;17.10;15.00;;;;;;;8.29;82.02;98468.28;213538;1276;141595;-66
2022/09/27 01:44:52;;;;;;;15.90;12.60;;;;;;;8.32;82.18;98469.88;213332;1275;141504;-65
2022/09/27 01:50:07;;;;;;;24.00;16.80;;;;;;;8.25;82.42;98460.24;213660;1276;139917;-67
2022/09/27 01:55:14;;;;;;;15.30;13.00;;;;;;;8.21;82.51;98458.20;213499;1276;141850;-66
2022/09/27 02:00:16;;;;;;;21.40;17.30;;;;;;;8.23;82.55;98450.35;214349;1276;141298;-66
2022/09/27 02:05:21;;;;;;;20.10;16.00;;;;;;;8.31;83.22;98451.39;214277;1276;141416;-66
2022/09/27 02:10:43;;;;;;;19.50;15.60;;;;;;;8.36;83.06;98450.28;214390;1276;141665;-67
2022/09/27 02:16:08;;;;;;;18.70;14.40;;;;;;;8.39;82.97;98435.61;215324;1276;142769;-68
2022/09/27 02:21:17;;;;;;;14.40;10.30;;;;;;;8.43;83.21;98430.71;214510;1275;141083;-67
2022/09/27 02:26:29;;;;;;;18.80;14.50;;;;;;;8.46;83.61;98430.26;214688;1276;141820;-67
2022/09/27 02:31:32;;;;;;;18.80;14.60;;;;;;;8.54;83.70;98425.23;213280;1276;142335;-66
2022/09/27 02:36:36;;;;;;;18.10;14.10;;;;;;;8.60;83.55;98422.91;216052;1276;141732;-70
2022/09/27 02:41:38;;;;;;;15.00;11.80;;;;;;;8.67;83.81;98419.36;215622;1274;141504;-68
2022/09/27 02:46:52;;;;;;;18.10;14.10;;;;;;;8.67;83.40;98415.54;215339;1276;140850;-67
2022/09/27 02:52:18;;;;;;;18.00;13.50;;;;;;;8.69;83.24;98414.13;215271;1276;142035;-68
2022/09/27 02:57:57;;;;;;;10.80;9.50;;;;;;;8.67;83.33;98401.25;215578;1276;140434;-66
2022/09/27 03:03:39;;;;;;;16.20;13.00;;;;;;;8.59;83.39;98396.25;215151;1278;140185;-67
2022/09/27 03:08:43;;;;;;;17.70;14.10;;;;;;;8.55;83.80;98392.20;213239;1276;141229;-67
2022/09/27 03:13:46;;;;;;;17.80;13.20;;;;;;;8.55;84.04;98391.29;214879;1276;140360;-68
2022/09/27 03:19:09;;;;;;;16.60;12.50;;;;;;;8.60;84.19;98383.88;214581;1276;221524;-67
2022/09/27 03:24:11;;;;;;;18.40;13.00;;;;;;;8.64;83.99;98386.45;213331;1276;141160;-66
2022/09/27 03:29:15;;;;;;;15.70;12.90;;;;;;;8.65;84.17;98387.37;213883;1276;140475;-66
2022/09/27 03:34:21;;;;;;;12.20;9.10;;;;;;;8.62;83.89;98377.95;213248;1276;141121;-67
2022/09/27 03:39:23;;;;;;;24.20;15.50;;;;;;;8.60;84.62;98367.30;213386;1278;140212;-67
2022/09/27 03:44:25;;;;;;;14.90;11.40;;;;;;;8.69;84.38;98360.23;213686;1276;140432;-67
2022/09/27 03:49:28;;;;;;;17.40;12.90;;;;;;;8.66;84.47;98352.52;213095;1276;141717;-68
2022/09/27 03:54:32;;;;;;;16.00;11.30;;;;;;;8.59;84.30;98345.40;213169;1276;143941;-67
2022/09/27 03:59:34;;;;;;;19.80;13.10;;;;;;;8.56;84.58;98341.89;213773;1276;141253;-64
2022/09/27 04:04:37;;;;;;;15.10;12.70;;;;;;;8.55;84.94;98332.42;213388;1276;141370;-68
2022/09/27 04:09:40;;;;;;;22.40;15.30;;;;;;;8.58;85.04;98322.30;214521;1276;140937;-68
2022/09/27 04:14:47;;;;;;;18.60;14.40;;;;;;;8.70;85.44;98319.94;213907;1276;140645;-68
2022/09/27 04:19:50;;;;;;;18.60;13.10;;;;;;;8.75;85.09;98321.51;214089;1276;140733;-67
2022/09/27 04:24:54;;;;;;;15.10;10.70;;;;;;;8.76;85.30;98318.27;215889;1276;141887;-69
2022/09/27 04:29:57;;;;;;;18.70;13.00;;;;;;;8.72;85.59;98317.02;214543;1277;140483;-67
2022/09/27 04:40:24;;;;;;;22.40;15.00;;;;;;;8.80;85.74;98322.39;215970;1276;141177;-67
2022/09/27 04:45:28;;;;;;;21.20;13.50;;;;;;;8.89;86.20;98322.27;215735;1276;140739;-67
2022/09/27 04:50:31;;;;;;;16.80;13.00;;;;;;;8.97;85.95;98320.70;215409;1275;141039;-68
2022/09/27 04:55:38;;;;;;;20.40;14.20;;;;;;;9.05;86.17;98317.89;213866;1277;141625;-67
2022/09/27 05:00:42;;;;;;;23.80;15.50;;;;;;;9.12;86.39;98314.84;214089;1276;155217;-65
2022/09/27 05:05:44;;;;;;;18.00;12.70;;;;;;;9.21;86.41;98311.03;212953;1276;142359;-66
2022/09/27 05:10:46;;;;;;;21.10;12.70;;;;;;;9.30;86.48;98317.13;212995;1276;141831;-66
2022/09/27 05:15:49;;;;;;;16.40;11.90;;;;;;;9.35;86.42;98314.76;214047;1276;142584;-70
2022/09/27 05:20:52;;;;;;;18.90;14.00;;;;;;;9.31;86.42;98313.63;213227;1276;142021;-68
2022/09/27 05:25:56;;;;;;;19.20;12.50;;;;;;;9.33;86.77;98306.50;213443;1276;142045;-68
2022/09/27 05:30:59;;;;;;;24.20;14.20;;;;;;;9.38;86.82;98302.01;212756;1276;144085;-67
2022/09/27 05:36:04;;;;;;;23.90;15.90;;;;;;;9.40;87.11;98303.77;213226;1276;141292;-66
2022/09/27 05:41:10;;;;;;;17.20;11.20;;;;;;;9.44;86.98;98304.31;215063;1276;140193;-66
2022/09/27 05:46:13;;;;;;;22.20;14.00;;;;;;;9.49;87.04;98305.90;213040;1276;141038;-66
2022/09/27 05:51:18;;;;;;;24.70;16.50;;;;;;;9.49;87.05;98301.13;214678;1276;142834;-72
2022/09/27 05:56:21;;;;;;;21.50;16.40;;;;;;;9.54;87.32;98298.04;213219;1276;141764;-68
2022/09/27 06:01:26;;;;;;;21.40;15.60;;;;;;;9.70;87.16;98299.84;213026;1277;142878;-67
2022/09/27 06:06:29;;;;;;;21.00;15.10;;;;;;;9.74;87.02;98293.09;214087;1276;141315;-67
2022/09/27 06:11:32;;;;;;;21.40;14.70;;;;;;;9.88;87.23;98291.65;213919;1276;143255;-66
2022/09/27 06:16:35;;;;;;;20.40;15.40;;;;;;;10.09;87.28;98285.55;213337;1276;141594;-66
2022/09/27 06:21:40;;;;;;;22.80;15.90;;;;;;;10.31;87.12;98280.83;214057;1276;152781;-66
2022/09/27 06:26:42;;;;;;;28.20;16.70;;;;;;;10.55;87.27;98283.13;214640;1276;141985;-67
2022/09/27 06:31:46;;;;;;;25.30;16.90;;;;;;;10.83;86.82;98284.98;215852;1276;142515;-66
2022/09/27 06:36:49;;;;;;;21.40;15.60;;;;;;;11.04;86.05;98286.33;215245;1276;142620;-66
2022/09/27 06:41:56;;;;;;;22.80;14.90;;;;;;;11.27;86.10;98286.88;215079;1276;144163;-66
2022/09/27 06:47:00;;;;;;;17.40;12.80;;;;;;;11.47;84.89;98290.14;215613;1276;141789;-68
2022/09/27 06:52:04;;;;;;;23.90;15.90;;;;;;;11.56;84.64;98292.61;214209;1276;141866;-66
2022/09/27 06:57:08;;;;;;;19.80;15.50;;;;;;;11.78;84.82;98295.63;213259;1277;153385;-66
2022/09/27 07:02:12;;;;;;;24.10;16.60;;;;;;;12.11;84.70;98294.43;215353;1276;142015;-67
2022/09/27 07:07:15;;;;;;;20.90;16.40;;;;;;;13.04;85.05;98292.70;213747;1276;142202;-66
2022/09/27 07:12:23;;;;;;;22.20;16.40;;;;;;;13.58;83.41;98290.70;214091;1277;141450;-66
2022/09/27 07:17:27;;;;;;;23.50;14.10;;;;;;;14.41;83.38;98284.06;214861;1276;141439;-67
2022/09/27 07:22:31;;;;;;;23.40;17.20;;;;;;;14.94;81.93;98277.62;213151;1277;140849;-66
2022/09/27 07:27:34;;;;;;;17.70;12.50;;;;;;;15.57;81.19;98275.02;213368;1276;152233;-65
2022/09/27 07:32:41;;;;;;;20.80;14.30;;;;;;;15.70;79.90;98276.89;213580;1276;144928;-65
2022/09/27 07:37:47;;;;;;;19.50;15.60;;;;;;;15.89;79.64;98278.88;213345;1276;140323;-65
2022/09/27 07:42:57;;;;;;;;;;;;;;;16.09;79.08;98279.48;214422;1276;140887;-68
2022/09/27 07:48:04;;;;;;;20.00;14.40;;;;;;;16.02;77.75;98280.46;213749;1277;126751;-68
2022/09/27 07:53:11;;;;;;;22.80;16.30;;;;;;;15.68;76.72;98280.23;214324;1277;140627;-68
2022/09/27 07:58:15;;;;;;;21.70;16.70;;;;;;;15.45;77.09;98281.95;214354;1276;141353;-68
2022/09/27 08:03:18;;;;;;;22.80;15.70;;;;;;;15.53;77.03;98284.68;214064;1277;153525;-66
2022/09/27 08:08:23;;;;;;;18.60;14.00;;;;;;;15.49;76.80;98292.92;213734;1276;142292;-67
2022/09/27 08:13:26;;;;;;;24.00;18.00;;;;;;;15.37;76.72;98294.71;214249;1276;234927;-67
2022/09/27 08:18:29;;;;;;;23.10;15.80;;;;;;;15.38;76.72;98295.99;213404;1277;141878;-67
2022/09/27 08:23:33;;;;;;;26.20;18.60;;;;;;;15.12;75.64;98294.08;213957;1276;142972;-67
2022/09/27 08:28:36;;;;;;;21.00;15.60;;;;;;;15.16;76.81;98288.98;213345;1276;164531;-69
2022/09/27 08:33:39;;;;;;;27.70;19.40;;;;;;;15.27;76.46;98289.73;214872;1276;141022;-67
2022/09/27 08:38:47;;;;;;;19.90;14.40;;;;;;;15.29;76.26;98286.09;214204;1276;152651;-67
2022/09/27 08:44:32;;;;;;;24.10;17.00;;;;;;;15.23;76.17;98274.58;213233;1276;141665;-67
2022/09/27 08:49:50;;;;;;;18.50;14.40;;;;;;;15.37;76.33;98279.63;214943;1280;140970;-68
2022/09/27 08:54:57;;;;;;;22.20;15.60;;;;;;;15.58;76.10;98275.92;215737;1276;141529;-69
2022/09/27 09:00:06;;;;;;;19.00;14.30;;;;;;;15.83;76.11;98268.38;215938;1276;140385;-69
2022/09/27 09:05:16;;;;;;;20.60;14.70;;;;;;;16.16;75.88;98265.72;215643;1276;140450;-67
2022/09/27 09:16:31;;;;;;;23.30;16.20;;;;;;;16.88;74.75;98261.32;214539;1276;141108;-65
2022/09/27 09:22:05;;;;;;;18.60;14.70;;;;;;;17.16;74.55;98258.78;213960;1277;141098;-67
2022/09/27 09:27:22;;;;;;;21.00;15.50;;;;;;;17.14;73.18;98254.25;213216;1276;140957;-66
2022/09/27 09:32:43;;;;;;;20.70;15.10;;;;;;;16.90;73.01;98245.88;214013;1276;140156;-66
2022/09/27 09:37:57;;;;;;;23.70;16.40;;;;;;;17.01;73.35;98240.39;212935;1276;141514;-67
2022/09/27 09:43:25;;;;;;;22.30;15.20;;;;;;;17.17;72.74;98232.55;212954;1276;141391;-67
2022/09/27 09:48:42;;;;;;;20.40;16.80;;;;;;;16.98;72.12;98232.55;213471;1276;141991;-66
2022/09/27 09:53:57;;;;;;;24.30;17.40;;;;;;;17.03;72.50;98222.71;212893;1276;1125850;-68
2022/09/27 09:59:04;;;;;;;23.90;19.90;;;;;;;17.05;71.63;98221.10;213072;1276;141322;-67
2022/09/27 10:04:28;;;;;;;25.00;18.30;;;;;;;17.05;71.76;98215.50;213316;1276;140723;-67
2022/09/27 10:09:32;;;;;;;21.60;18.00;;;;;;;17.43;72.08;98205.96;213924;1276;140512;-67
2022/09/27 10:14:36;;;;;;;22.30;15.00;;;;;;;17.75;71.60;98197.27;214539;1276;140884;-67
2022/09/27 10:19:40;;;;;;;15.10;13.00;;;;;;;18.02;70.93;98192.88;215283;1276;140798;-67
2022/09/27 10:24:56;;;;;;;23.40;15.60;;;;;;;18.16;70.45;98188.76;214359;1276;139987;-67
2022/09/27 10:30:00;;;;;;;;;;;;;;;18.34;70.18;98186.57;214078;1275;140747;-66
2022/09/27 10:35:31;;;;;;;22.90;16.40;;;;;;;18.43;69.65;98180.88;215721;1275;126598;-68
2022/09/27 10:40:34;;;;;;;20.30;15.90;;;;;;;18.60;68.80;98173.00;214614;1276;140085;-70
2022/09/27 10:45:39;;;;;;;22.50;18.80;;;;;;;18.59;68.04;98164.65;215799;1276;140596;-68
2022/09/27 10:51:07;;;;;;;19.60;17.50;;;;;;;18.57;67.79;98156.08;216057;1276;141109;-68
2022/09/27 10:56:23;;;;;;;20.00;16.60;;;;;;;18.77;67.81;98145.85;215295;1276;140738;-67
2022/09/27 11:01:39;;;;;;;26.60;16.70;;;;;;;18.94;67.48;98135.46;215645;1276;162404;-69
2022/09/27 11:06:43;;;;;;;19.70;15.40;;;;;;;18.95;66.69;98133.29;215695;1276;140440;-70
2022/09/27 11:11:46;;;;;;;16.60;14.30;;;;;;;18.85;66.63;98133.49;214398;1276;140614;-68
2022/09/27 11:17:10;;;;;;;16.00;14.50;;;;;;;18.89;66.46;98135.37;213912;1275;140916;-70
2022/09/27 11:22:19;;;;;;;16.40;12.40;;;;;;;19.11;66.63;98131.46;214442;1276;140168;-66
2022/09/27 11:27:48;;;;;;;13.20;11.00;;;;;;;19.30;66.11;98135.34;213241;1276;142023;-69
2022/09/27 11:33:22;;;;;;;16.70;14.50;;;;;;;19.05;64.74;98126.29;213160;1276;140181;-66
2022/09/27 11:38:30;;;;;;;14.00;10.40;;;;;;;18.74;65.10;98114.81;213385;1276;140171;-68
2022/09/27 11:43:57;;;;;;;14.70;11.50;;;;;;;18.65;64.84;98110.61;213806;1276;140648;-66
2022/09/27 11:49:24;;;;;;;12.80;9.70;;;;;;;18.63;64.80;98104.73;212859;1276;140165;-66
2022/09/27 11:54:54;;;;;;;11.00;9.60;;;;;;;18.57;64.54;98107.10;213195;1275;140945;-67
2022/09/27 12:00:17;;;;;;;11.20;8.10;;;;;;;18.53;64.26;98102.18;213448;1276;140243;-66
2022/09/27 12:05:51;;;;;;;6.30;5.70;;;;;;;18.65;63.93;98090.31;214254;1276;141518;-68
2022/09/27 12:11:25;;;;;;;14.20;7.90;;;;;;;18.87;63.59;98087.08;214053;1276;139915;-68
2022/09/27 12:16:30;;;;;;;8.80;7.40;;;;;;;19.06;63.29;98082.91;214266;1276;140287;-68
2022/09/27 12:21:35;;;;;;;10.40;7.60;;;;;;;19.26;63.18;98079.54;214852;1275;139993;-69
2022/09/27 12:26:43;;;;;;;11.00;8.30;;;;;;;19.48;62.90;98075.11;214857;1275;139896;-66
2022/09/27 12:32:10;;;;;;;8.80;7.70;;;;;;;19.37;62.25;98064.17;215391;1276;140508;-68
2022/09/27 12:37:29;;;;;;;8.30;7.30;;;;;;;19.44;62.12;98058.27;215702;1276;140570;-67
2022/09/27 12:43:10;;;;;;;7.90;7.30;;;;;;;19.53;61.99;98044.15;215717;1276;140870;-67
2022/09/27 12:48:46;;;;;;;9.90;6.50;;;;;;;19.40;61.42;98036.89;215811;1275;163785;-68
2022/09/27 12:54:05;;;;;;;7.80;7.00;;;;;;;19.21;61.25;98037.38;215403;1277;161782;-71
2022/09/27 12:59:39;;;;;;;7.30;6.60;;;;;;;19.01;61.05;98027.25;215836;1276;141595;-71
2022/09/27 13:05:16;;;;;;;6.10;5.10;;;;;;;19.04;60.87;98021.10;214700;1276;140725;-67
2022/09/27 13:10:34;;;;;;;8.00;7.20;;;;;;;19.10;60.75;98019.42;213718;1276;140317;-67
2022/09/27 13:15:38;;;;;;;7.20;6.60;;;;;;;19.11;60.51;98011.18;213124;1276;142129;-68
2022/09/27 13:20:47;;;;;;;7.30;6.60;;;;;;;18.92;60.31;98003.48;214053;1276;140251;-70
2022/09/27 13:25:59;;;;;;;10.40;7.00;;;;;;;18.77;60.62;97993.23;213023;1276;142823;-66
2022/09/27 13:31:10;;;;;;;6.10;5.60;;;;;;;18.70;60.90;97996.34;213209;1276;141754;-70
2022/09/27 13:36:21;;;;;;;7.20;6.30;;;;;;;18.40;60.76;98000.05;213123;1276;142672;-70
2022/09/27 13:41:24;;;;;;;6.50;5.90;;;;;;;18.13;61.08;98000.02;213022;1276;141631;-72
2022/09/27 13:46:27;;;;;;;6.30;5.80;;;;;;;18.18;61.49;97997.43;213107;1276;140205;-70
2022/09/27 13:51:40;;;;;;;6.60;6.00;;;;;;;18.07;61.54;97994.16;213674;1276;140206;-71
2022/09/27 13:56:45;;;;;;;6.90;5.00;;;;;;;17.71;61.50;98006.22;214413;1276;140227;-68
2022/09/27 14:02:19;;;;;;;6.80;6.10;;;;;;;17.41;61.90;98004.40;215291;1276;139669;-69
2022/09/27 14:07:36;;;;;;;6.80;5.80;;;;;;;17.23;62.57;98007.10;214057;1276;163384;-66
2022/09/27 14:12:42;;;;;;;7.10;6.40;;;;;;;17.19;63.11;98003.02;213724;1276;141822;-66
2022/09/27 14:17:46;;;;;;;6.20;5.60;;;;;;;17.12;63.00;98000.56;213648;1276;151080;-68
2022/09/27 14:22:53;;;;;;;5.70;5.10;;;;;;;17.00;63.41;97999.89;214245;1276;139993;-71
2022/09/27 14:28:00;;;;;;;7.90;6.40;;;;;;;16.93;63.66;97997.04;214669;1276;141343;-68
2022/09/27 14:33:03;;;;;;;6.00;4.70;;;;;;;16.89;64.19;97991.30;215357;1276;140236;-69
2022/09/27 14:38:09;;;;;;;8.00;6.00;;;;;;;16.82;64.18;97993.95;215709;1276;140613;-69
2022/09/27 14:43:34;;;;;;;7.50;6.10;;;;;;;16.72;64.22;97988.98;214401;1276;140489;-69
2022/09/27 14:48:40;;;;;;;9.30;6.10;;;;;;;16.63;64.58;97990.54;215632;1276;140706;-69
2022/09/27 14:53:46;;;;;;;10.60;6.80;;;;;;;16.54;64.73;97989.89;214987;1277;141546;-72
2022/09/27 14:58:55;;;;;;;8.10;7.20;;;;;;;16.48;65.12;97999.39;215603;1276;140916;-70
2022/09/27 15:04:05;;;;;;;4.10;3.40;;;;;;;16.53;65.57;98006.66;215643;1276;151449;-69
2022/09/27 15:09:13;;;;;;;3.70;3.40;;;;;;;16.43;65.14;98019.32;213608;1276;142286;-68
2022/09/27 15:14:20;;;;;;;6.70;3.50;;;;;;;16.24;65.41;98011.12;214372;1276;163838;-66
2022/09/27 15:19:25;;;;;;;2.90;2.70;;;;;;;16.02;65.59;97999.86;214602;1276;141395;-71
2022/09/27 15:24:46;;;;;;;3.60;3.30;;;;;;;15.73;65.96;98005.66;213931;1276;141198;-72
2022/09/27 15:29:55;;;;;;;4.50;3.50;;;;;;;15.47;66.80;98035.72;213548;1276;140892;-70
2022/09/27 15:35:06;;;;;;;3.20;3.00;;;;;;;15.19;67.64;98015.27;213957;1276;142340;-70
2022/09/27 15:40:15;;;;;;;5.00;3.70;;;;;;;14.94;68.34;98011.52;213328;1276;140801;-72
2022/09/27 15:45:37;;;;;;;3.80;3.30;;;;;;;14.75;69.25;98008.53;213135;1276;141770;-70
2022/09/27 15:50:41;;;;;;;4.00;3.60;;;;;;;14.62;70.04;98008.85;213114;1276;141397;-68
2022/09/27 15:55:44;;;;;;;5.60;4.40;;;;;;;14.52;70.55;98017.75;213292;1276;140761;-70
2022/09/27 16:00:58;;;;;;;7.10;4.60;;;;;;;14.35;71.03;98030.91;213546;1276;140191;-70
2022/09/27 16:06:02;;;;;;;4.90;4.40;;;;;;;14.24;71.86;98027.86;213504;1276;142747;-67
2022/09/27 16:11:08;;;;;;;5.30;4.60;;;;;;;14.14;72.33;98034.69;213700;1277;142203;-70
2022/09/27 16:16:17;;;;;;;5.30;2.80;;;;;;;13.98;72.48;98075.53;212996;1276;151852;-69
2022/09/27 16:21:19;;;;;;;6.70;2.50;;;;;;;13.77;72.84;98051.88;213821;1276;142146;-68
2022/09/27 16:26:22;;;;;;;3.90;1.70;;;;;;;13.63;73.08;98060.01;213437;1275;141675;-70
2022/09/27 16:31:28;;;;;;;2.10;1.90;;;;;;;13.51;72.98;98067.49;212936;1276;141309;-70
2022/09/27 16:36:34;;;;;;;2.20;1.90;;;;;;;13.40;73.62;98076.30;215009;1276;143208;-71
2022/09/27 16:41:42;;;;;;;1.80;1.70;;;;;;;13.27;73.61;98098.67;215885;1275;141600;-70
2022/09/27 16:46:45;;;;;;;1.50;1.40;;;;;;;13.19;73.65;98102.64;215122;1276;141633;-67
2022/09/27 16:51:59;;;;;;;2.90;1.60;;;;;;;13.15;73.77;98108.20;215953;1275;141485;-68
2022/09/27 16:57:05;;;;;;;1.80;1.60;;;;;;;13.08;74.01;98108.34;215885;1275;142172;-75
2022/09/27 17:02:11;;;;;;;1.70;1.60;;;;;;;13.01;74.18;98113.79;215907;1275;141789;-70
2022/09/27 17:07:13;;;;;;;3.10;1.60;;;;;;;12.93;74.06;98113.00;215538;1276;141462;-67
2022/09/27 17:12:16;;;;;;;4.00;1.70;;;;;;;12.86;74.16;98104.12;214067;1276;141155;-70
2022/09/27 17:17:24;;;;;;;1.70;1.60;;;;;;;12.79;74.09;98092.89;214997;1275;141347;-69
2022/09/27 17:22:28;;;;;;;1.80;1.50;;;;;;;12.74;74.19;98083.39;215047;1276;139906;-67
2022/09/27 17:27:30;;;;;;;1.70;1.60;;;;;;;12.63;74.31;98078.44;215028;1276;142145;-66
2022/09/27 17:32:34;;;;;;;3.90;2.10;;;;;;;12.54;74.63;98084.29;214667;1276;142459;-67
2022/09/27 17:37:37;;;;;;;3.00;1.80;;;;;;;12.47;74.95;98077.98;213587;1276;143363;-68
2022/09/27 17:42:39;;;;;;;3.90;2.00;;;;;;;12.36;74.87;98080.77;213134;1276;141074;-67
2022/09/27 17:53:03;;;;;;;2.10;2.00;;;;;;;12.08;75.86;98093.55;213333;1277;140711;-67
2022/09/27 17:58:06;;;;;;;3.00;2.10;;;;;;;12.10;76.02;98094.86;213992;1273;141587;-67
2022/09/27 18:03:09;;;;;;;1.90;1.80;;;;;;;12.10;76.49;98101.55;212978;1276;141679;-67
2022/09/27 18:08:12;;;;;;;2.10;1.70;;;;;;;12.10;76.47;98107.70;213486;1276;142153;-67
2022/09/27 18:13:15;;;;;;;2.70;1.90;;;;;;;12.07;76.72;98113.76;213668;1276;141429;-67
2022/09/27 18:18:19;;;;;;;5.40;1.80;;;;;;;12.07;76.86;98121.66;214522;1275;140976;-67
2022/09/27 18:23:22;;;;;;;7.40;2.80;;;;;;;12.02;76.84;98132.17;213804;1276;141330;-67
2022/09/27 18:28:28;;;;;;;2.30;1.30;;;;;;;11.81;76.67;98143.97;213207;1275;142842;-67
2022/09/27 18:33:32;;;;;;;4.50;3.00;;;;;;;11.62;76.93;98147.69;214791;1277;234323;-69
2022/09/27 18:38:34;;;;;;;2.70;2.50;;;;;;;11.49;77.55;98147.96;214016;1276;141735;-67
2022/09/27 18:43:43;;;;;;;3.30;2.90;;;;;;;11.46;77.94;98149.80;214053;1276;141198;-68
2022/09/27 18:48:47;;;;;;;7.40;4.10;;;;;;;11.51;78.10;98157.77;215685;1276;140697;-68
2022/09/27 18:53:56;;;;;;;6.10;4.40;;;;;;;11.58;78.29;98167.10;215475;1278;141478;-68
2022/09/27 18:58:59;;;;;;;5.30;3.10;;;;;;;11.56;78.41;98167.56;215597;1276;141185;-68
2022/09/27 19:04:02;;;;;;;7.80;3.90;;;;;;;11.51;78.48;98162.09;214721;1276;140571;-67
2022/09/27 19:09:06;;;;;;;7.10;4.20;;;;;;;11.48;78.62;98160.61;215408;1276;141304;-66
2022/09/27 19:14:15;;;;;;;4.90;4.10;;;;;;;11.54;78.89;98153.42;214787;1276;140975;-67
2022/09/27 19:19:19;;;;;;;8.70;5.60;;;;;;;11.63;79.00;98145.96;213590;1275;141313;-68
2022/09/27 19:24:22;;;;;;;7.00;4.20;;;;;;;11.68;78.70;98144.11;213719;1276;140339;-66
2022/09/27 19:29:25;;;;;;;12.80;6.90;;;;;;;11.57;78.77;98145.33;213623;1276;141303;-68
2022/09/27 19:34:28;;;;;;;9.40;6.40;;;;;;;11.43;79.12;98144.20;214377;1276;140600;-66
2022/09/27 19:39:32;;;;;;;9.40;5.50;;;;;;;11.34;79.18;98135.31;212836;1276;140015;-66
2022/09/27 19:44:34;;;;;;;7.80;5.10;;;;;;;11.32;79.44;98136.83;213165;1276;142274;-67
2022/09/27 19:49:37;;;;;;;6.40;4.90;;;;;;;11.27;79.38;98135.65;213108;1276;140727;-68
2022/09/27 19:54:39;;;;;;;5.20;4.20;;;;;;;11.27;80.09;98132.55;213040;1276;142739;-66
2022/09/27 19:59:45;;;;;;;4.70;4.30;;;;;;;11.33;80.25;98127.59;213852;1276;140415;-67
2022/09/27 20:04:50;;;;;;;5.70;4.70;;;;;;;11.31;79.92;98128.63;212737;1277;141652;-67
2022/09/27 20:09:53;;;;;;;8.50;5.00;;;;;;;11.34;80.15;98124.96;213365;1276;140506;-67
2022/09/27 20:14:56;;;;;;;7.90;5.90;;;;;;;11.26;79.99;98118.31;213613;1276;140652;-68
2022/09/27 20:20:00;;;;;;;8.20;6.90;;;;;;;11.22;80.46;98122.88;213002;1276;139994;-66
2022/09/27 20:25:02;;;;;;;9.90;6.70;;;;;;;11.29;80.88;98127.10;214418;1276;140831;-67
2022/09/27 20:30:07;;;;;;;10.00;7.30;;;;;;;11.34;80.86;98120.96;213577;1276;141071;-67
2022/09/27 20:35:10;;;;;;;7.00;5.90;;;;;;;11.37;80.65;98117.47;215478;1276;142295;-66
2022/09/27 20:40:11;;;;;;;6.60;4.80;;;;;;;11.37;80.52;98113.67;214073;1276;141156;-68
2022/09/27 20:45:13;;;;;;;4.40;3.50;;;;;;;11.29;80.58;98118.45;214877;1276;140672;-67
2022/09/27 20:50:17;;;;;;;5.60;4.00;;;;;;;11.26;80.84;98118.58;215861;1276;141178;-68
2022/09/27 20:55:20;;;;;;;6.70;5.20;;;;;;;11.25;80.86;98125.90;215902;1275;140982;-67
2022/09/27 21:00:24;;;;;;;7.30;5.40;;;;;;;11.25;80.73;98122.76;215819;1276;141649;-67
2022/09/27 21:05:28;;;;;;;9.50;5.50;;;;;;;11.32;81.08;98119.65;214559;1276;151755;-68
2022/09/27 21:10:32;;;;;;;8.00;5.50;;;;;;;11.36;80.90;98122.86;214028;1276;141325;-67
2022/09/27 21:15:35;;;;;;;5.10;4.30;;;;;;;11.31;80.92;98124.47;214031;1274;141070;-68
2022/09/27 21:20:38;;;;;;;6.00;5.40;;;;;;;11.26;81.27;98117.69;214898;1276;141243;-68
2022/09/27 21:25:42;;;;;;;10.70;6.20;;;;;;;11.22;81.24;98117.23;214423;1276;140755;-67
2022/09/27 21:30:45;;;;;;;12.90;6.30;;;;;;;11.21;81.40;98118.35;214053;1276;141876;-67
2022/09/27 21:35:51;;;;;;;7.00;6.00;;;;;;;11.20;81.63;98114.25;213604;1276;143031;-67
2022/09/27 21:41:14;;;;;;;6.90;5.50;;;;;;;11.28;81.81;98113.34;212887;1276;142416;-67
2022/09/27 21:46:24;;;;;;;8.50;3.80;;;;;;;11.22;81.80;98112.27;213236;1276;141274;-66
2022/09/27 21:51:36;;;;;;;5.80;5.20;;;;;;;11.14;82.11;98115.14;213182;1276;141680;-67
2022/09/27 21:56:40;;;;;;;8.50;6.30;;;;;;;11.12;82.04;98113.13;213287;1276;863356;-68
2022/09/27 22:01:44;;;;;;;8.70;7.20;;;;;;;11.11;82.35;98109.23;213521;1276;142499;-67
2022/09/27 22:06:47;;;;;;;23.90;7.70;;;;;;;11.17;82.58;98102.80;214398;1276;144674;-66
2022/09/27 22:11:51;;;;;;;8.00;6.90;;;;;;;11.21;82.29;98099.52;214565;1273;140755;-68
2022/09/27 22:16:54;;;;;;;8.10;6.20;;;;;;;11.23;82.36;98098.13;215093;1276;140139;-67
2022/09/27 22:21:58;;;;;;;6.90;6.30;;;;;;;11.20;82.15;98103.54;214995;1276;141047;-67
2022/09/27 22:27:01;;;;;;;9.90;8.20;;;;;;;11.20;82.51;98107.22;214872;1276;139808;-67
2022/09/27 22:32:05;;;;;;;5.70;5.20;;;;;;;11.27;82.37;98110.52;215767;1276;140346;-68
2022/09/27 22:37:08;;;;;;;8.10;6.10;;;;;;;11.31;82.22;98104.14;215523;1276;141218;-66
2022/09/27 22:42:11;;;;;;;8.30;5.80;;;;;;;11.31;82.00;98105.08;215925;1276;140658;-69
2022/09/27 22:47:13;;;;;;;8.00;6.90;;;;;;;11.29;82.12;98110.25;214888;1275;141884;-67
2022/09/27 22:52:16;;;;;;;9.80;6.40;;;;;;;11.25;81.80;98113.90;215941;1276;140742;-67
2022/09/27 22:57:21;;;;;;;6.60;5.90;;;;;;;11.22;81.82;98115.09;215268;1276;142236;-67
2022/09/27 23:02:24;;;;;;;12.70;6.80;;;;;;;11.26;81.88;98113.04;213486;1276;141378;-67
2022/09/27 23:07:29;;;;;;;6.10;4.70;;;;;;;11.25;81.73;98114.70;214507;1276;140869;-67
2022/09/27 23:12:33;;;;;;;7.90;5.80;;;;;;;11.17;81.64;98119.81;214174;1276;141139;-67
2022/09/27 23:17:37;;;;;;;11.10;6.90;;;;;;;11.06;81.60;98119.19;213131;1276;142903;-67
2022/09/27 23:22:40;;;;;;;10.60;6.60;;;;;;;11.03;81.75;98118.67;213986;1276;142685;-67
2022/09/27 23:27:49;;;;;;;6.60;5.90;;;;;;;11.01;81.91;98109.84;214896;1275;141833;-66
2022/09/27 23:32:52;;;;;;;;;;;;;;;11.03;82.04;98106.95;213312;1276;141365;-67
2022/09/27 23:37:57;;;;;;;7.20;6.40;;;;;;;10.98;82.14;98103.48;213907;1276;127881;-66
2022/09/27 23:43:01;;;;;;;9.70;6.10;;;;;;;10.94;81.68;98105.63;213309;1276;152221;-66